This is the latest recevied weather packets stored in our database for station/object KB1RMA-4. If no packets are shown the sender has not sent any weather packets the latest 10 day(s).
| Time | Temp. | Humidity | Pressure | Rain* | Wind** | Luminosity | Snow |
|---|---|---|---|---|---|---|---|
| 1788455001 | 22.22° C | 83% | 1013.5 hPa | 0 mm | - | 359 W/m² | - |
| 1788454699 | 22.78° C | 83% | 1013.6 hPa | 0 mm | - | 236 W/m² | - |
| 1788454394 | 21.67° C | 85% | 1013.3 hPa | 0 mm | - | 933 W/m² | - |
| 1788454089 | 21.11° C | 86% | 1013.5 hPa | 0 mm | - | 405 W/m² | - |
| 1788453784 | 21.11° C | 87% | 1013.6 hPa | 0 mm | - | 181 W/m² | - |
| 1788453483 | 20.56° C | 86% | 1013.4 hPa | 0 mm | - | 212 W/m² | - |
| 1788453181 | 21.11° C | 87% | 1013.2 hPa | 0 mm | - | 283 W/m² | - |
| 1788452876 | 20.56° C | 87% | 1013.5 hPa | 0 mm | - | 227 W/m² | - |
| 1788452572 | 20.56° C | 87% | 1013.7 hPa | 0 mm | - | 227 W/m² | - |
| 1788452268 | 20.56° C | 88% | 1013.5 hPa | 0 mm | - | 269 W/m² | - |
| 1788451963 | 20.56° C | 88% | 1013.7 hPa | 0 mm | - | 254 W/m² | - |
| 1788451658 | 20.56° C | 88% | 1013.6 hPa | 0 mm | - | 232 W/m² | - |
| 1788451357 | 20° C | 89% | 1013.7 hPa | 0 mm | - | 276 W/m² | - |
| 1788451056 | 20° C | 89% | 1013.9 hPa | 0 mm | - | 252 W/m² | - |
| 1788450751 | 20° C | 89% | 1014.1 hPa | 0 mm | - | 204 W/m² | - |
| 1788450447 | 20° C | 90% | 1014.1 hPa | 0 mm | - | 123 W/m² | - |
| 1788450143 | 20° C | 90% | 1014.1 hPa | 0 mm | - | 152 W/m² | - |
| 1788449838 | 20° C | 90% | 1014.1 hPa | 0 mm | - | 139 W/m² | - |
| 1788449534 | 20° C | 90% | 1014 hPa | 0 mm | - | 142 W/m² | - |
| 1788449230 | 20° C | 91% | 1014.1 hPa | 0 mm | - | 113 W/m² | - |
| 1788448926 | 20° C | 92% | 1014 hPa | 0 mm | - | 256 W/m² | - |
| 1788448626 | 19.44° C | 92% | 1014.2 hPa | 0 mm | - | 209 W/m² | - |
| 1788448321 | 19.44° C | 94% | 1014.1 hPa | 0 mm | - | 281 W/m² | - |
| 1788448020 | 20° C | 95% | 1014.3 hPa | 0 mm | - | 229 W/m² | - |
| 1788447715 | 19.44° C | 96% | 1014.2 hPa | 0 mm | - | 239 W/m² | - |
* Rain latest hour (hover to see other rain measurements)
** Current wind speed in m/s (hover to see current wind gust speed)